Etusivu
METAR-TAF:

METAR-TAF

Lentoasemat :

Stord, Norja

Leveyspiiri: 59-48N, Pituuspiiri: 005-21E, korkeus merenpinnasta: 49 m

Tämänhetkinen sää

Tämä raportti tehtiin 1 tunti ja 7 minuuttia sitten, kello 12.50 UTC
Tuuli 11 kn luoteesta, vaihdellen lännen/luoteen ja pohjoisen välillä
Lämpötila 8°C
Kosteus 57%
Ilmanpaine 1030 hPa
Näkyvyys 10 km tai enemmän
Muutamia pilviä 2500 ft:n korkeudessa

METAR: ENSO 301250Z 32011KT 290V350 9999 FEW025 08/M00 Q1030

Aika: 15:57 (13:57 UTC)

Sääennuste

Tämä raportti tehtiin 5 tuntia ja 57 minuuttia sitten, kello 08.00 UTC
Ennuste voimassa 30. päivästä klo 09 UTC - 30. päivään klo 14 UTC
Tuuli 18 kn pohjoisen/luoteesta
Näkyvyys 10 km tai enemmän
Hajanaisia pilviä 2000 ft:n korkeudessa

TAF: ENSO 300800Z 3009/3014 34018KT 9999 SCT020

Säähavainnot ja -ennusteet yli 4000 lentoasemalta (METAR- ja TAF-raportit).

Käytössä olevat sääasemat on merkitty karttaan keltaisilla ja punaisilla pisteillä.

Aseta hiiri pisteen päälle nähdäksesi sääaseman nimen.

Klikkaa sitten nähdäksesi säähavainnot ja -ennusteet.

Kartan vaihtaminen: klikkaa mustalla rastilla varustettuja vihreitä pisteitä, niin voit zoomata sisään; viivalla varustettua vihreää pistettä, niin voit zoomata ulos tai vihreitä nuolia, niin pääset viereisille kartoille.


METAR-TAF: